Time;durP1;ratioP1;P1;durP2;ratioP2;P2;SDS_P1;SDS_P2;PMS_P1;PMS_P2;Temp;Humidity;BMP_temperature;BMP_pressure;BME280_temperature;BME280_humidity;BME280_pressure;Samples;Min_cycle;Max_cycle;Signal;HPM_P1;HPM_P2
2022/12/09 00:01:23;;;;;;;;;;;;;;;34.91;nan;102143.34;5055998;28;19928;-67
2022/12/09 00:03:49;;;;;;;;;;;;;;;34.03;nan;102150.06;5059352;28;19925;-67
2022/12/09 00:06:19;;;;;;;;;;;;;;;34.50;nan;102140.72;5067663;28;20318;-67
2022/12/09 00:08:46;;;;;;;;;;;;;;;36.02;nan;102133.84;5069378;28;19924;-64
2022/12/09 00:11:12;;;;;;;;;;;;;;;36.36;nan;102130.56;5063676;28;19924;-64
2022/12/09 00:13:38;;;;;;;;;;;;;;;36.29;nan;102143.50;5061315;28;19924;-66
2022/12/09 00:16:12;;;;;;;;;;;;;;;35.99;nan;102137.47;5065773;28;19959;-64
2022/12/09 00:18:38;;;;;;;;;;;;;;;37.14;nan;102145.22;5067814;28;19921;-64
2022/12/09 00:21:12;;;;;;;;;;;;;;;37.03;nan;102138.00;5065774;28;19977;-64
2022/12/09 00:23:38;;;;;;;;;;;;;;;37.08;nan;102141.22;5064705;28;19924;-64
2022/12/09 00:26:04;;;;;;;;;;;;;;;36.12;nan;102144.34;5063913;28;19982;-64
2022/12/09 00:28:32;;;;;;;;;;;;;;;37.41;nan;102139.81;5098140;27;20007;-64
2022/12/09 00:31:01;;;;;;;;;;;;;;;37.16;nan;102139.13;5064911;28;19925;-61
2022/12/09 00:33:30;;;;;;;;;;;;;;;37.48;nan;102136.91;5098257;28;19974;-66
2022/12/09 00:36:07;;;;;;;;;;;;;;;37.43;nan;102134.53;5069788;28;19974;-66
2022/12/09 00:38:34;;;;;;;;;;;;;;;37.37;nan;102124.88;5063963;28;19935;-64
2022/12/09 00:41:01;;;;;;;;;;;;;;;37.38;nan;102129.31;5066071;28;19928;-62
2022/12/09 00:43:27;;;;;;;;;;;;;;;37.28;nan;102124.50;5063990;28;20011;-65
2022/12/09 00:45:54;;;;;;;;;;;;;;;37.13;nan;102123.75;5066178;28;19943;-64
2022/12/09 00:48:20;;;;;;;;;;;;;;;37.21;nan;102118.88;5100871;27;20016;-66
2022/12/09 00:50:47;;;;;;;;;;;;;;;37.04;nan;102125.44;5085249;28;19928;-66
2022/12/09 00:53:13;;;;;;;;;;;;;;;36.88;nan;102120.28;5068160;28;20427;-66
2022/12/09 00:55:39;;;;;;;;;;;;;;;36.68;nan;102133.28;5065885;28;19986;-64
2022/12/09 00:58:06;;;;;;;;;;;;;;;36.51;nan;102120.81;5072250;28;19920;-65
2022/12/09 01:00:32;;;;;;;;;;;;;;;36.47;nan;102132.16;5070769;28;19928;-63
2022/12/09 01:02:59;;;;;;;;;;;;;;;36.46;nan;102136.22;5065209;28;20424;-66
2022/12/09 01:05:25;;;;;;;;;;;;;;;36.37;nan;102126.50;5065357;28;19925;-63
2022/12/09 01:07:51;;;;;;;;;;;;;;;36.28;nan;102139.06;5071079;28;19927;-64
2022/12/09 01:10:18;;;;;;;;;;;;;;;36.13;nan;102134.63;5066483;28;19935;-64
2022/12/09 01:12:44;;;;;;;;;;;;;;;36.11;nan;102137.06;5065796;28;20429;-63
2022/12/09 01:15:10;;;;;;;;;;;;;;;36.10;nan;102129.78;5068889;28;20294;-65
2022/12/09 01:17:38;;;;;;;;;;;;;;;35.98;nan;102138.69;5065389;28;20302;-63
2022/12/09 01:20:07;;;;;;;;;;;;;;;35.91;nan;102136.69;5097847;28;19921;-67
2022/12/09 01:22:33;;;;;;;;;;;;;;;35.87;nan;102137.88;5074170;28;19931;-64
2022/12/09 01:25:00;;;;;;;;;;;;;;;35.72;nan;102132.19;5060435;28;19932;-62
2022/12/09 01:27:29;;;;;;;;;;;;;;;35.68;nan;102139.06;5067852;28;20015;-64
2022/12/09 01:29:55;;;;;;;;;;;;;;;35.57;nan;102141.09;5065343;28;20489;-64
2022/12/09 01:32:21;;;;;;;;;;;;;;;35.49;nan;102134.63;5071130;28;19924;-63
2022/12/09 01:34:48;;;;;;;;;;;;;;;35.48;nan;102137.84;5067402;28;19916;-62
2022/12/09 01:37:14;;;;;;;;;;;;;;;35.33;nan;102137.78;5068439;28;19920;-62
2022/12/09 01:39:42;;;;;;;;;;;;;;;35.36;nan;102137.03;5066204;28;19968;-64
2022/12/09 01:42:19;;;;;;;;;;;;;;;35.32;nan;102141.03;5070981;28;20014;-63
2022/12/09 01:45:06;;;;;;;;;;;;;;;35.33;nan;102137.00;5099276;28;20297;-65
2022/12/09 01:47:32;;;;;;;;;;;;;;;35.25;nan;102138.19;5067580;28;19928;-63
2022/12/09 01:49:59;;;;;;;;;;;;;;;35.08;nan;102134.94;5080087;28;20053;-64
2022/12/09 01:52:26;;;;;;;;;;;;;;;35.11;nan;102136.94;5068558;28;19924;-62
2022/12/09 01:54:53;;;;;;;;;;;;;;;35.05;nan;102135.72;5098137;28;19921;-64
2022/12/09 01:57:20;;;;;;;;;;;;;;;35.08;nan;102131.28;5075714;28;19928;-65
2022/12/09 01:59:47;;;;;;;;;;;;;;;35.09;nan;102133.72;5111632;28;19965;-64
2022/12/09 02:02:15;;;;;;;;;;;;;;;35.14;nan;102127.66;5070968;28;19920;-63
2022/12/09 02:04:44;;;;;;;;;;;;;;;34.91;nan;102135.69;5085502;28;19927;-64
2022/12/09 02:07:12;;;;;;;;;;;;;;;34.85;nan;102137.28;5088652;28;20059;-64
2022/12/09 02:09:38;;;;;;;;;;;;;;;34.79;nan;102136.00;5074419;28;19929;-64
2022/12/09 02:12:16;;;;;;;;;;;;;;;34.76;nan;102136.78;5111247;27;19965;-64
2022/12/09 02:14:42;;;;;;;;;;;;;;;34.75;nan;102136.00;5089522;28;19920;-62
2022/12/09 02:17:16;;;;;;;;;;;;;;;34.71;nan;102134.38;5079025;28;19920;-65
2022/12/09 02:19:49;;;;;;;;;;;;;;;34.65;nan;102130.28;5083492;28;19977;-64
2022/12/09 02:22:18;;;;;;;;;;;;;;;34.59;nan;102140.34;5086192;28;20024;-64
2022/12/09 02:24:57;;;;;;;;;;;;;;;34.60;nan;102137.13;5075821;28;19924;-62
2022/12/09 02:27:35;;;;;;;;;;;;;;;34.56;nan;102138.31;5074418;28;20016;-65
2022/12/09 02:30:14;;;;;;;;;;;;;;;34.34;nan;102152.28;5109421;27;19916;-63
2022/12/09 02:33:07;;;;;;;;;;;;;;;34.35;nan;102144.63;5074842;28;20336;-64
2022/12/09 02:35:44;;;;;;;;;;;;;;;34.24;nan;102148.19;5112406;27;19927;-62
2022/12/09 02:38:10;;;;;;;;;;;;;;;34.20;nan;102152.19;5079742;28;19928;-63
2022/12/09 02:41:06;;;;;;;;;;;;;;;34.08;nan;102146.84;5086887;28;20397;-62
2022/12/09 02:43:38;;;;;;;;;;;;;;;34.12;nan;102159.00;5068811;28;20323;-63
2022/12/09 02:46:05;;;;;;;;;;;;;;;33.96;nan;102147.19;5074701;28;20355;-64
2022/12/09 02:48:37;;;;;;;;;;;;;;;33.88;nan;102155.56;5078454;28;19962;-62
2022/12/09 02:51:06;;;;;;;;;;;;;;;33.96;nan;102150.00;5078996;28;20438;-62
2022/12/09 02:53:34;;;;;;;;;;;;;;;33.88;nan;102155.56;5074104;28;20082;-65
2022/12/09 02:56:04;;;;;;;;;;;;;;;33.91;nan;102151.16;5076789;28;19921;-62
2022/12/09 02:58:32;;;;;;;;;;;;;;;33.86;nan;102152.34;5078122;28;19920;-62
2022/12/09 03:01:00;;;;;;;;;;;;;;;33.75;nan;102148.56;5079844;28;19920;-64
2022/12/09 03:03:28;;;;;;;;;;;;;;;33.79;nan;102146.63;5078344;28;20007;-64
2022/12/09 03:06:06;;;;;;;;;;;;;;;33.79;nan;102146.63;5078075;28;20049;-65
2022/12/09 03:08:52;;;;;;;;;;;;;;;33.78;nan;102153.47;5079072;28;19920;-64
2022/12/09 03:11:20;;;;;;;;;;;;;;;33.75;nan;102151.41;5077552;28;19920;-65
2022/12/09 03:13:49;;;;;;;;;;;;;;;33.85;nan;102162.00;5080613;28;19938;-64
2022/12/09 03:16:42;;;;;;;;;;;;;;;33.73;nan;102165.09;5089692;28;20525;-65
2022/12/09 03:19:14;;;;;;;;;;;;;;;33.73;nan;102164.28;5085323;28;19933;-62
2022/12/09 03:21:42;;;;;;;;;;;;;;;33.71;nan;102167.47;5078740;28;20376;-63
2022/12/09 03:24:10;;;;;;;;;;;;;;;33.74;nan;102155.41;5076644;28;20006;-65
2022/12/09 03:26:37;;;;;;;;;;;;;;;33.73;nan;102155.81;5078971;28;19920;-65
2022/12/09 03:29:06;;;;;;;;;;;;;;;33.76;nan;102155.06;5080042;28;19924;-65
2022/12/09 03:31:33;;;;;;;;;;;;;;;33.83;nan;102158.75;5077423;28;19974;-64
2022/12/09 03:34:02;;;;;;;;;;;;;;;33.83;nan;102161.56;5077087;28;19922;-64
2022/12/09 03:36:33;;;;;;;;;;;;;;;33.76;nan;102161.50;5081555;28;19928;-65
2022/12/09 03:39:01;;;;;;;;;;;;;;;33.75;nan;102157.03;5082951;28;19927;-65
2022/12/09 03:41:28;;;;;;;;;;;;;;;33.71;nan;102170.31;5080544;28;19916;-65
2022/12/09 03:44:08;;;;;;;;;;;;;;;33.60;nan;102172.22;5080531;28;19920;-64
2022/12/09 03:46:34;;;;;;;;;;;;;;;33.50;nan;102165.28;5089317;28;19927;-64
2022/12/09 03:49:00;;;;;;;;;;;;;;;33.55;nan;102164.91;5076053;28;19916;-65
2022/12/09 03:51:50;;;;;;;;;;;;;;;33.54;nan;102162.47;5083797;28;19920;-65
2022/12/09 03:54:43;;;;;;;;;;;;;;;33.50;nan;102165.28;5071830;28;20298;-64
2022/12/09 03:57:14;;;;;;;;;;;;;;;33.35;nan;102169.94;5064256;28;19920;-64
2022/12/09 03:59:43;;;;;;;;;;;;;;;33.38;nan;102171.19;5082176;28;19935;-64
2022/12/09 04:02:09;;;;;;;;;;;;;;;33.35;nan;102166.31;5087498;28;20374;-63
2022/12/09 04:04:40;;;;;;;;;;;;;;;33.34;nan;102171.16;5074802;28;20303;-65
2022/12/09 04:07:07;;;;;;;;;;;;;;;33.30;nan;102167.47;5087109;28;20311;-64
2022/12/09 04:09:34;;;;;;;;;;;;;;;33.32;nan;102173.53;5075258;28;19965;-63
2022/12/09 04:12:00;;;;;;;;;;;;;;;33.33;nan;102161.06;5073537;28;19926;-62
2022/12/09 04:14:26;;;;;;;;;;;;;;;33.31;nan;102163.44;5072717;28;20375;-61
2022/12/09 04:16:53;;;;;;;;;;;;;;;33.38;nan;102167.56;5071405;28;19925;-60
2022/12/09 04:19:19;;;;;;;;;;;;;;;33.38;nan;102164.72;5070670;28;19935;-62
2022/12/09 04:21:46;;;;;;;;;;;;;;;33.35;nan;102161.50;5070877;28;19928;-63
2022/12/09 04:24:12;;;;;;;;;;;;;;;33.25;nan;102156.53;5070901;28;19916;-63
2022/12/09 04:26:39;;;;;;;;;;;;;;;33.17;nan;102163.28;5070775;28;19920;-62
2022/12/09 04:29:05;;;;;;;;;;;;;;;33.06;nan;102153.91;5072144;28;19962;-63
2022/12/09 04:31:31;;;;;;;;;;;;;;;32.97;nan;102150.56;5070377;28;20374;-62
2022/12/09 04:33:59;;;;;;;;;;;;;;;33.04;nan;102161.94;5072257;28;19920;-64
2022/12/09 04:36:25;;;;;;;;;;;;;;;33.08;nan;102156.34;5072979;28;19965;-64
2022/12/09 04:38:52;;;;;;;;;;;;;;;32.92;nan;102167.81;5072533;28;19917;-65
2022/12/09 04:41:18;;;;;;;;;;;;;;;32.90;nan;102170.22;5072902;28;19946;-64
2022/12/09 04:43:45;;;;;;;;;;;;;;;32.84;nan;102166.09;5072518;28;20366;-64
2022/12/09 04:46:12;;;;;;;;;;;;;;;32.72;nan;102175.56;5071534;28;19927;-65
2022/12/09 04:48:39;;;;;;;;;;;;;;;32.65;nan;102167.81;5072560;28;20019;-64
2022/12/09 04:51:08;;;;;;;;;;;;;;;32.66;nan;102169.44;5071690;28;20367;-65
2022/12/09 04:53:35;;;;;;;;;;;;;;;32.75;nan;102172.81;5071787;28;19921;-65
2022/12/09 04:56:04;;;;;;;;;;;;;;;32.87;nan;102173.78;5070434;28;20019;-63
2022/12/09 04:58:31;;;;;;;;;;;;;;;32.76;nan;102167.97;5070204;28;20033;-65
2022/12/09 05:00:58;;;;;;;;;;;;;;;32.85;nan;102164.91;5071892;28;20007;-65
2022/12/09 05:03:24;;;;;;;;;;;;;;;32.76;nan;102174.41;5071804;28;19943;-64
2022/12/09 05:05:50;;;;;;;;;;;;;;;32.61;nan;102174.59;5071267;28;19921;-65
2022/12/09 05:08:17;;;;;;;;;;;;;;;32.60;nan;102173.00;5071266;28;20337;-65
2022/12/09 05:10:48;;;;;;;;;;;;;;;32.70;nan;102184.41;5070780;28;19927;-64
2022/12/09 05:13:15;;;;;;;;;;;;;;;32.65;nan;102178.28;5069437;28;20012;-63
2022/12/09 05:15:41;;;;;;;;;;;;;;;32.62;nan;102177.03;5071330;28;19916;-65
2022/12/09 05:18:08;;;;;;;;;;;;;;;32.63;nan;102180.66;5070861;28;19970;-63
2022/12/09 05:20:37;;;;;;;;;;;;;;;32.63;nan;102175.84;5071813;28;19917;-66
2022/12/09 05:23:04;;;;;;;;;;;;;;;32.42;nan;102169.91;5070326;28;19928;-66
2022/12/09 05:25:30;;;;;;;;;;;;;;;32.39;nan;102174.31;5071220;28;20310;-64
2022/12/09 05:27:56;;;;;;;;;;;;;;;32.43;nan;102172.34;5071651;28;19921;-64
2022/12/09 05:30:22;;;;;;;;;;;;;;;32.42;nan;102158.66;5072086;28;19916;-63
2022/12/09 05:32:48;;;;;;;;;;;;;;;32.39;nan;102174.31;5071935;28;19920;-65
2022/12/09 05:35:15;;;;;;;;;;;;;;;32.40;nan;102172.31;5070682;28;19916;-65
2022/12/09 05:37:41;;;;;;;;;;;;;;;32.43;nan;102177.97;5071621;28;19924;-63
2022/12/09 05:40:07;;;;;;;;;;;;;;;32.43;nan;102175.16;5071654;28;20011;-65
2022/12/09 05:42:34;;;;;;;;;;;;;;;32.42;nan;102179.16;5072135;28;19920;-66
2022/12/09 05:45:00;;;;;;;;;;;;;;;32.40;nan;102172.31;5075237;28;19917;-65
2022/12/09 05:47:26;;;;;;;;;;;;;;;32.42;nan;102176.34;5073643;28;20427;-63
2022/12/09 05:49:52;;;;;;;;;;;;;;;32.41;nan;102173.94;5074972;28;19974;-64
2022/12/09 05:52:19;;;;;;;;;;;;;;;32.39;nan;102176.31;5074921;28;19928;-66
2022/12/09 05:54:45;;;;;;;;;;;;;;;32.44;nan;102178.78;5075425;28;19974;-63
2022/12/09 05:57:11;;;;;;;;;;;;;;;32.38;nan;102169.88;5074695;28;20083;-62
2022/12/09 05:59:37;;;;;;;;;;;;;;;32.30;nan;102179.38;5075673;28;19920;-63
2022/12/09 06:02:04;;;;;;;;;;;;;;;32.25;nan;102176.06;5073925;28;19921;-65
2022/12/09 06:04:30;;;;;;;;;;;;;;;32.26;nan;102177.69;5073453;28;20011;-65
2022/12/09 06:06:56;;;;;;;;;;;;;;;32.21;nan;102178.81;5077427;28;19924;-64
2022/12/09 06:09:23;;;;;;;;;;;;;;;32.34;nan;102174.63;5094863;28;20383;-63
2022/12/09 06:11:49;;;;;;;;;;;;;;;32.16;nan;102173.53;5074968;28;19928;-64
2022/12/09 06:14:15;;;;;;;;;;;;;;;32.10;nan;102173.00;5071465;28;19924;-64
2022/12/09 06:16:42;;;;;;;;;;;;;;;32.01;nan;102175.28;5074925;28;19927;-64
2022/12/09 06:19:09;;;;;;;;;;;;;;;31.90;nan;102182.72;5074756;28;20331;-65
2022/12/09 06:21:38;;;;;;;;;;;;;;;31.99;nan;102179.66;5072504;28;19921;-64
2022/12/09 06:24:04;;;;;;;;;;;;;;;31.97;nan;102174.44;5072932;28;19939;-65
2022/12/09 06:26:31;;;;;;;;;;;;;;;31.84;nan;102175.81;5074206;28;19920;-65
2022/12/09 06:28:58;;;;;;;;;;;;;;;31.92;nan;102177.53;5074102;28;19931;-64
2022/12/09 06:31:25;;;;;;;;;;;;;;;31.93;nan;102170.72;5072174;28;19935;-65
2022/12/09 06:33:51;;;;;;;;;;;;;;;31.92;nan;102177.53;5074274;28;19917;-63
2022/12/09 06:36:17;;;;;;;;;;;;;;;31.92;nan;102180.34;5075777;28;19920;-65
2022/12/09 06:38:44;;;;;;;;;;;;;;;31.73;nan;102178.41;5074280;28;19955;-64
2022/12/09 06:41:11;;;;;;;;;;;;;;;31.78;nan;102172.50;5067874;28;20306;-64
2022/12/09 06:43:38;;;;;;;;;;;;;;;31.77;nan;102162.41;5072170;28;19955;-67
2022/12/09 06:46:14;;;;;;;;;;;;;;;31.71;nan;102168.72;5072540;28;20363;-65
2022/12/09 06:48:41;;;;;;;;;;;;;;;31.52;nan;102163.94;5074223;28;20003;-63
2022/12/09 06:51:08;;;;;;;;;;;;;;;31.53;nan;102163.56;5072098;28;19948;-67
2022/12/09 06:53:34;;;;;;;;;;;;;;;31.64;nan;102157.34;5073095;28;19921;-66
2022/12/09 06:56:05;;;;;;;;;;;;;;;31.58;nan;102157.63;5072188;28;20027;-66
2022/12/09 06:58:32;;;;;;;;;;;;;;;31.63;nan;102161.34;5071027;28;20003;-64
2022/12/09 07:01:05;;;;;;;;;;;;;;;31.50;nan;102155.91;5072597;28;20290;-64
2022/12/09 07:03:32;;;;;;;;;;;;;;;31.45;nan;102156.22;5072489;28;19928;-63
2022/12/09 07:05:58;;;;;;;;;;;;;;;31.52;nan;102150.72;5072661;28;20271;-63
2022/12/09 07:08:24;;;;;;;;;;;;;;;31.52;nan;102145.09;5073575;28;20024;-61
2022/12/09 07:10:50;;;;;;;;;;;;;;;31.27;nan;102139.03;5056655;28;19917;-62
2022/12/09 07:13:17;;;;;;;;;;;;;;;31.44;nan;102142.53;5073757;28;19986;-60
2022/12/09 07:15:43;;;;;;;;;;;;;;;31.54;nan;102145.53;5073884;28;19916;-61
2022/12/09 07:18:10;;;;;;;;;;;;;;;31.56;nan;102151.59;5073588;28;20379;-62
2022/12/09 07:20:36;;;;;;;;;;;;;;;31.46;nan;102142.97;5073885;28;20362;-62
2022/12/09 07:23:02;;;;;;;;;;;;;;;31.37;nan;102136.78;5089279;28;19979;-62
2022/12/09 07:25:28;;;;;;;;;;;;;;;31.33;nan;102136.72;5073799;28;20023;-63
2022/12/09 07:27:55;;;;;;;;;;;;;;;31.36;nan;102130.34;5072208;28;19970;-64
2022/12/09 07:30:21;;;;;;;;;;;;;;;31.33;nan;102133.91;5073913;28;20020;-62
2022/12/09 07:32:47;;;;;;;;;;;;;;;31.26;nan;102130.97;5073829;28;19920;-61
2022/12/09 07:35:14;;;;;;;;;;;;;;;31.27;nan;102124.97;5073655;28;19916;-63
2022/12/09 07:37:40;;;;;;;;;;;;;;;31.35;nan;102127.91;5073944;28;19920;-61
2022/12/09 07:40:07;;;;;;;;;;;;;;;31.30;nan;102128.22;5073635;28;20375;-63
2022/12/09 07:42:34;;;;;;;;;;;;;;;31.19;nan;102126.00;5074799;28;19932;-60
2022/12/09 07:45:03;;;;;;;;;;;;;;;31.07;nan;102130.97;5087254;28;20024;-60
2022/12/09 07:47:29;;;;;;;;;;;;;;;31.09;nan;102122.97;5081543;28;19920;-60
2022/12/09 07:49:55;;;;;;;;;;;;;;;30.98;nan;102125.56;5080176;28;19974;-59
2022/12/09 07:52:22;;;;;;;;;;;;;;;30.95;nan;102121.50;5089918;28;19963;-60
2022/12/09 07:54:48;;;;;;;;;;;;;;;30.90;nan;102127.44;5075698;28;19927;-59
2022/12/09 07:57:14;;;;;;;;;;;;;;;30.83;nan;102118.03;5084233;28;19920;-59
2022/12/09 07:59:40;;;;;;;;;;;;;;;30.63;nan;102114.41;5074445;28;19935;-60
2022/12/09 08:02:08;;;;;;;;;;;;;;;30.60;nan;102110.31;5072314;28;19924;-61
2022/12/09 08:04:35;;;;;;;;;;;;;;;30.59;nan;102110.69;5076295;28;19924;-60
2022/12/09 08:07:01;;;;;;;;;;;;;;;30.62;nan;102107.97;5075060;28;19969;-59
2022/12/09 08:09:27;;;;;;;;;;;;;;;30.43;nan;102105.13;5082105;28;19920;-59
2022/12/09 08:11:53;;;;;;;;;;;;;;;30.30;nan;102098.81;5080957;28;19924;-60
2022/12/09 08:14:20;;;;;;;;;;;;;;;29.52;nan;102104.50;5089514;28;19916;-60
2022/12/09 08:16:46;;;;;;;;;;;;;;;30.21;nan;102095.44;5076350;28;20007;-60
2022/12/09 08:19:12;;;;;;;;;;;;;;;30.56;nan;102094.59;5086701;28;20263;-60
2022/12/09 08:21:39;;;;;;;;;;;;;;;30.60;nan;102087.06;5083185;28;19920;-61
2022/12/09 08:24:06;;;;;;;;;;;;;;;30.47;nan;102094.78;5078791;28;20290;-59
2022/12/09 08:26:33;;;;;;;;;;;;;;;30.54;nan;102077.31;5075502;28;20020;-60
2022/12/09 08:28:59;;;;;;;;;;;;;;;30.37;nan;102073.75;5088391;28;19924;-60
2022/12/09 08:31:26;;;;;;;;;;;;;;;30.45;nan;102080.31;5081531;28;20363;-60
2022/12/09 08:33:53;;;;;;;;;;;;;;;30.32;nan;102081.63;5079447;28;19973;-60
2022/12/09 08:36:21;;;;;;;;;;;;;;;30.19;nan;102089.38;5088882;28;19919;-60
2022/12/09 08:38:47;;;;;;;;;;;;;;;30.26;nan;102077.50;5076036;28;19916;-61
2022/12/09 08:41:16;;;;;;;;;;;;;;;30.20;nan;102074.16;5086226;28;19921;-60
2022/12/09 08:43:43;;;;;;;;;;;;;;;30.23;nan;102070.63;5082318;28;19969;-61
2022/12/09 08:46:10;;;;;;;;;;;;;;;30.20;nan;102070.56;5078018;28;19927;-61
2022/12/09 08:48:38;;;;;;;;;;;;;;;30.12;nan;102075.16;5089360;28;19920;-61
2022/12/09 08:51:04;;;;;;;;;;;;;;;30.13;nan;102074.00;5077995;28;19927;-61
2022/12/09 08:53:31;;;;;;;;;;;;;;;30.07;nan;102075.47;5082314;28;19923;-61
2022/12/09 08:55:57;;;;;;;;;;;;;;;29.96;nan;102077.16;5085513;28;20396;-61
2022/12/09 08:58:23;;;;;;;;;;;;;;;29.97;nan;102067.56;5076319;28;20015;-60
2022/12/09 09:00:49;;;;;;;;;;;;;;;29.94;nan;102068.31;5076206;28;19920;-60
2022/12/09 09:03:16;;;;;;;;;;;;;;;29.96;nan;102065.94;5085631;28;20333;-60
2022/12/09 09:05:42;;;;;;;;;;;;;;;30.00;nan;102075.28;5083193;28;19925;-61
2022/12/09 09:08:08;;;;;;;;;;;;;;;30.01;nan;102071.28;5077839;28;19916;-61
2022/12/09 09:10:35;;;;;;;;;;;;;;;29.99;nan;102068.88;5089153;28;19916;-61
2022/12/09 09:13:02;;;;;;;;;;;;;;;29.96;nan;102068.75;5077692;28;20317;-61
2022/12/09 09:15:28;;;;;;;;;;;;;;;29.97;nan;102059.16;5083697;28;19943;-61
2022/12/09 09:17:54;;;;;;;;;;;;;;;29.93;nan;102059.09;5086452;28;19920;-60
2022/12/09 09:20:20;;;;;;;;;;;;;;;30.03;nan;102064.13;5080195;28;19928;-61
2022/12/09 09:22:47;;;;;;;;;;;;;;;29.92;nan;102065.06;5093308;28;19928;-60
2022/12/09 09:25:13;;;;;;;;;;;;;;;29.85;nan;102070.50;5083375;28;19965;-60
2022/12/09 09:27:39;;;;;;;;;;;;;;;29.86;nan;102058.94;5086012;28;19969;-60
2022/12/09 09:30:07;;;;;;;;;;;;;;;29.77;nan;102059.09;5106293;28;19927;-61
2022/12/09 09:32:34;;;;;;;;;;;;;;;29.71;nan;102063.38;5079450;28;19917;-61
2022/12/09 09:35:00;;;;;;;;;;;;;;;29.65;nan;102064.03;5091470;28;19968;-61
2022/12/09 09:37:26;;;;;;;;;;;;;;;29.70;nan;102067.34;5084950;28;19923;-61
2022/12/09 09:39:53;;;;;;;;;;;;;;;29.73;nan;102066.63;5083729;28;19959;-61
2022/12/09 09:42:22;;;;;;;;;;;;;;;29.76;nan;102065.09;5092148;28;20339;-61
2022/12/09 09:44:53;;;;;;;;;;;;;;;29.76;nan;102063.09;5079447;28;20305;-62
2022/12/09 09:47:32;;;;;;;;;;;;;;;29.69;nan;102064.91;5088372;28;20382;-62
2022/12/09 09:50:05;;;;;;;;;;;;;;;29.64;nan;102065.19;5084370;28;20015;-61
2022/12/09 09:52:33;;;;;;;;;;;;;;;29.46;nan;102064.75;5092535;28;19985;-61
2022/12/09 09:55:11;;;;;;;;;;;;;;;29.36;nan;102059.66;5080822;28;20396;-61
2022/12/09 09:57:38;;;;;;;;;;;;;;;29.17;nan;102060.34;5080180;28;19928;-61
2022/12/09 10:00:05;;;;;;;;;;;;;;;29.36;nan;102054.03;5088259;28;19916;-61
2022/12/09 10:03:13;;;;;;;;;;;;;;;29.49;nan;102055.63;5077720;28;19920;-61
2022/12/09 10:05:48;;;;;;;;;;;;;;;29.63;nan;102050.38;5040720;28;19921;-62
2022/12/09 10:08:27;;;;;;;;;;;;;;;29.61;nan;102041.50;5068661;28;19924;-61
2022/12/09 10:10:53;;;;;;;;;;;;;;;29.51;nan;102035.66;5094201;28;19924;-61
2022/12/09 10:13:22;;;;;;;;;;;;;;;29.31;nan;102032.72;5086949;28;20011;-61
2022/12/09 10:16:07;;;;;;;;;;;;;;;29.42;nan;102033.78;5086368;28;19924;-61
2022/12/09 10:18:43;;;;;;;;;;;;;;;29.36;nan;102028.84;5077830;28;19920;-61
2022/12/09 10:21:19;;;;;;;;;;;;;;;29.30;nan;102030.28;5085291;28;19924;-62
2022/12/09 10:23:46;;;;;;;;;;;;;;;29.24;nan;102026.13;5080125;28;19925;-61
2022/12/09 10:26:22;;;;;;;;;;;;;;;29.22;nan;102017.25;5088877;28;19916;-62
2022/12/09 10:28:53;;;;;;;;;;;;;;;29.31;nan;102026.31;5076114;28;19920;-62
2022/12/09 10:31:19;;;;;;;;;;;;;;;29.31;nan;102027.13;5086069;28;19927;-62
2022/12/09 10:33:45;;;;;;;;;;;;;;;29.22;nan;102022.88;5085476;28;19920;-62
2022/12/09 10:36:25;;;;;;;;;;;;;;;29.31;nan;102020.72;5080328;28;20397;-62
2022/12/09 10:38:52;;;;;;;;;;;;;;;29.34;nan;102014.38;5079127;28;20003;-62
2022/12/09 10:44:32;;;;;;;;;;;;;;;29.28;nan;102021.44;5088074;28;19920;-61
2022/12/09 10:47:03;;;;;;;;;;;;;;;29.38;nan;102021.69;5079641;28;19916;-61
2022/12/09 10:49:30;;;;;;;;;;;;;;;28.07;nan;102023.56;5085718;28;19968;-61
2022/12/09 10:51:56;;;;;;;;;;;;;;;28.71;nan;102014.25;5087319;28;20038;-61
2022/12/09 10:54:40;;;;;;;;;;;;;;;28.99;nan;102006.69;5078489;28;19928;-61
2022/12/09 10:57:15;;;;;;;;;;;;;;;29.10;nan;102005.00;5080456;28;19920;-61
2022/12/09 10:59:54;;;;;;;;;;;;;;;29.03;nan;102009.56;5083923;28;20299;-61
2022/12/09 11:02:21;;;;;;;;;;;;;;;28.99;nan;101998.28;5090938;28;19942;-62
2022/12/09 11:04:48;;;;;;;;;;;;;;;29.02;nan;101999.56;5077959;28;20348;-61
2022/12/09 11:07:16;;;;;;;;;;;;;;;28.93;nan;101994.16;5087826;28;20343;-61
2022/12/09 11:09:47;;;;;;;;;;;;;;;28.93;nan;101994.16;5085310;28;20332;-61
2022/12/09 11:12:16;;;;;;;;;;;;;;;28.90;nan;101989.25;5079352;28;19927;-61
2022/12/09 11:14:50;;;;;;;;;;;;;;;28.86;nan;101982.75;5091021;28;20279;-61
2022/12/09 11:17:16;;;;;;;;;;;;;;;28.73;nan;101983.97;5081687;28;19973;-61
2022/12/09 11:19:44;;;;;;;;;;;;;;;28.76;nan;101984.06;5083314;28;20366;-61
2022/12/09 11:22:22;;;;;;;;;;;;;;;28.77;nan;101993.28;5089276;28;19982;-61
2022/12/09 11:24:49;;;;;;;;;;;;;;;28.80;nan;101984.16;5077672;28;20451;-61
2022/12/09 11:27:26;;;;;;;;;;;;;;;28.79;nan;101983.34;5087047;28;19916;-61
2022/12/09 11:30:13;;;;;;;;;;;;;;;28.79;nan;101988.13;5086506;28;19924;-61
2022/12/09 11:32:58;;;;;;;;;;;;;;;28.84;nan;101987.84;5077295;28;19995;-61
2022/12/09 11:35:33;;;;;;;;;;;;;;;28.69;nan;101980.25;5085730;28;19977;-61
2022/12/09 11:38:02;;;;;;;;;;;;;;;28.85;nan;101986.69;5087060;28;20022;-61
2022/12/09 11:40:29;;;;;;;;;;;;;;;28.75;nan;101973.22;5077172;28;19916;-61
2022/12/09 11:42:56;;;;;;;;;;;;;;;28.69;nan;101977.44;5084844;28;19920;-61
2022/12/09 11:45:27;;;;;;;;;;;;;;;28.75;nan;101976.03;5085839;28;20015;-61
2022/12/09 11:48:00;;;;;;;;;;;;;;;28.84;nan;101982.25;5086152;28;19924;-61
2022/12/09 11:50:31;;;;;;;;;;;;;;;28.61;nan;101981.22;5077149;28;20278;-61
2022/12/09 11:53:12;;;;;;;;;;;;;;;28.51;nan;101990.94;5089200;28;20610;-61
2022/12/09 11:55:47;;;;;;;;;;;;;;;28.54;nan;101982.63;5083803;28;19921;-61
2022/12/09 11:58:15;;;;;;;;;;;;;;;28.44;nan;101983.16;5078514;28;19921;-61
2022/12/09 12:00:50;;;;;;;;;;;;;;;28.29;nan;101984.72;5090135;28;20378;-61
2022/12/09 12:03:46;;;;;;;;;;;;;;;28.43;nan;101978.75;5080881;28;19955;-61
2022/12/09 12:06:23;;;;;;;;;;;;;;;28.55;nan;101973.09;5068674;28;19950;-61
2022/12/09 12:09:01;;;;;;;;;;;;;;;28.65;nan;101982.13;5060444;28;19959;-60
2022/12/09 12:11:32;;;;;;;;;;;;;;;28.57;nan;101970.75;5084702;28;20077;-61
2022/12/09 12:14:11;;;;;;;;;;;;;;;28.69;nan;101969.88;5086489;28;19924;-61
2022/12/09 12:16:41;;;;;;;;;;;;;;;28.63;nan;101973.28;5075250;28;20374;-61
2022/12/09 12:19:10;;;;;;;;;;;;;;;28.64;nan;101981.31;5087483;28;19921;-61
2022/12/09 12:21:55;;;;;;;;;;;;;;;28.61;nan;101981.22;5082782;28;20425;-61
2022/12/09 12:24:28;;;;;;;;;;;;;;;28.54;nan;101981.81;5077081;28;20010;-61
2022/12/09 12:27:05;;;;;;;;;;;;;;;28.55;nan;101989.06;5061593;28;19959;-61
2022/12/09 12:29:35;;;;;;;;;;;;;;;28.59;nan;101988.00;5083928;28;20375;-61
2022/12/09 12:32:16;;;;;;;;;;;;;;;28.51;nan;101983.34;5086547;28;19920;-61
2022/12/09 12:34:59;;;;;;;;;;;;;;;28.32;nan;101982.38;5076623;28;20015;-61
2022/12/09 12:37:52;;;;;;;;;;;;;;;28.27;nan;101983.47;5084373;28;19920;-61
2022/12/09 12:40:31;;;;;;;;;;;;;;;28.13;nan;101988.59;5086362;28;19977;-61
2022/12/09 12:46:18;;;;;;;;;;;;;;;28.18;nan;101979.94;5079235;28;19920;-60
2022/12/09 12:48:47;;;;;;;;;;;;;;;28.29;nan;101981.94;5089426;28;19927;-60
2022/12/09 12:51:19;;;;;;;;;;;;;;;28.21;nan;101985.66;5079689;28;20293;-60
2022/12/09 12:54:14;;;;;;;;;;;;;;;28.12;nan;101976.59;5080870;28;19931;-60
2022/12/09 12:56:40;;;;;;;;;;;;;;;28.13;nan;101994.19;5059183;28;19946;-61
2022/12/09 12:59:22;;;;;;;;;;;;;;;28.08;nan;101988.84;5086910;28;19964;-61
2022/12/09 13:02:17;;;;;;;;;;;;;;;28.12;nan;101984.16;5071014;28;19976;-61
2022/12/09 13:04:56;;;;;;;;;;;;;;;28.10;nan;102000.50;5084620;28;19929;-61
2022/12/09 13:07:34;;;;;;;;;;;;;;;27.76;nan;101996.22;5080761;28;19920;-60
2022/12/09 13:10:24;;;;;;;;;;;;;;;27.63;nan;102003.81;5079335;28;20014;-60
2022/12/09 13:12:55;;;;;;;;;;;;;;;27.76;nan;102008.22;5070670;28;19916;-60
2022/12/09 13:15:24;;;;;;;;;;;;;;;27.77;nan;102004.25;5080584;28;19925;-60
2022/12/09 13:17:51;;;;;;;;;;;;;;;27.96;nan;101998.88;5084339;28;19916;-60